KMDH Weather | Aviation | SIU

Home
Southern Illinois University

CONTACT

SIU.EDU

Aviation - Weather

College of Applied Sciences and Arts

KMDH Weather

NOTICE: Although all weather products are taken from the National Weather Service, this data should be used only as a supplement to a formal weather briefing.

Last Updated: Wednesday, December 19th, 2018, 4:41 am
Information on this page is updated every 5 minutes.


METARS

KMDH 190952Z AUTO 16004KT 10SM FEW120 03/M01 A3000 RMK AO2 SLP160 T00281011

KMDH 190852Z AUTO 13004KT 10SM CLR 02/M01 A3001 RMK AO2 SLP165 T00221011 58012

KMDH 190752Z AUTO 17004KT 10SM CLR M01/M02 A3003 RMK AO2 SLP172 T10061017

KMWA 191015Z AUTO 15004KT 10SM SCT120 03/M01 A3001 RMK AO2 T00301009

KMWA 190955Z AUTO 15003KT 10SM SCT120 03/M01 A3001 RMK AO2 T00301008

KMWA 190935Z AUTO 16003KT 10SM SCT120 03/M01 A3001 RMK AO2 T00311008

KMWA 190915Z AUTO 16004KT 10SM CLR 03/M01 A3002 RMK AO2 T00321010

KMWA 190855Z AUTO 17004KT 10SM CLR 03/M01 A3002 RMK AO2 T00291009

KMWA 190835Z AUTO 19003KT 10SM CLR 02/M01 A3003 RMK AO2 T00151007

KMWA 190815Z AUTO 17004KT 10SM CLR 02/M01 A3004 RMK AO2 T00181006

KMWA 190755Z AUTO 16003KT 10SM CLR 02/M01 A3004 RMK AO2 T00201007

KCGI 190953Z AUTO 00000KT 10SM CLR 03/M02 A3000 RMK AO2 SLP159 T00281022

KCGI 190853Z AUTO 00000KT 10SM CLR 03/M02 A3001 RMK AO2 SLP164 T00281022 58012

KCGI 190753Z AUTO 11003KT 10SM CLR 02/M02 A3004 RMK AO2 SLP173 T00171017

KSAR 190955Z AUTO 15004KT 10SM CLR 03/00 A3000 RMK AO2 T00250000

KSAR 190935Z AUTO 15004KT 10SM CLR 03/00 A3000 RMK AO2 T00261001

KSAR 190915Z AUTO 16004KT 10SM SCT120 03/00 A3000 RMK AO2 T00250000

KSAR 190855Z AUTO 15003KT 10SM CLR 02/00 A3001 RMK AO2 T00210000

KSAR 190835Z AUTO 00000KT 10SM CLR 02/00 A3002 RMK AO2 T00200003

KSAR 190815Z AUTO 00000KT 10SM CLR 02/00 A3002 RMK AO2 T00210001

KSAR 190755Z AUTO 14003KT 10SM CLR 03/00 A3003 RMK AO2 T00250000

KFAM 190956Z AUTO 19005KT 10SM CLR 04/M01 A2998 RMK AO2 SLP153 T00391011

KFAM 190856Z AUTO 20003KT 10SM CLR 04/M01 A2999 RMK AO2 SLP155 T00391006 58015

KFAM 190756Z AUTO 00000KT 10SM FEW120 04/M01 A3000 RMK AO2 SLP161 T00441011

KMVN 190956Z AUTO 00000KT 9SM CLR M01/M01 A3000 RMK AO2 SLP162 T10061011 FZRANO

KMVN 190856Z AUTO 00000KT 8SM CLR M01/M02 A3002 RMK AO2 SLP168 T10061017 56012

KMVN 190756Z AUTO 00000KT 10SM CLR M01/M01 A3004 RMK AO2 SLP174 T10061011 FZRANO

KHSB 191015Z AUTO 00000KT 10SM CLR 01/01 A3002 RMK AO2 T00060005

KHSB 190955Z AUTO 00000KT 10SM CLR 00/00 A3002 RMK AO2 T00001001

KCIR 191015Z AUTO 00000KT 10SM CLR 00/M01 A3001 RMK AO2 T10041006

KCIR 190955Z AUTO 00000KT 10SM CLR 00/00 A3001 RMK AO2 T10021005

KPAH 190953Z AUTO 16003KT 10SM CLR 01/M03 A3000 RMK AO2 SLP161 T00111028

KFAM 190956Z AUTO 19005KT 10SM CLR 04/M01 A2998 RMK AO2 SLP153 T00391011

KBLV 190956Z AUTO 00000KT 10SM OVC190 02/M01 A2997 RMK AO2 SLP155 T00211012 $

KVIH 190953Z AUTO 18011KT 10SM CLR 04/M01 A2992 RMK AO2 SLP136 T00391006

KENL 191015Z AUTO 00000KT 10SM CLR 04/01 A2998 RMK AO2 T00350006

KENL 190955Z AUTO 00000KT 10SM CLR 04/01 A2998 RMK AO2 T00350008

KMTO 190953Z AUTO 18007KT 10SM CLR 02/M01 A2999 RMK AO2 SLP159 T00171011

KFWC 191015Z AUTO 00000KT 10SM CLR 02/00 A3000 RMK AO1 T00221002

KFWC 190955Z AUTO 00000KT 10SM CLR 02/00 A3001 RMK AO1 T00221002

KCUL 191012Z AUTO 00000KT 5SM BR CLR 00/M01 A3002 RMK AO2

KCUL 190952Z AUTO 00000KT 5SM BR CLR 00/M01 A3002 RMK AO2

KEVV 190954Z AUTO 00000KT 10SM CLR M02/M02 A3004 RMK AO2 SLP175 T10171022 $

KCEY 191015Z AUTO 15006KT 10SM CLR 02/M02 A3001 RMK AO1

KCEY 190955Z AUTO 14006KT 10SM CLR 02/M01 A3001 RMK AO1

KHOP 190956Z AUTO 12003KT 10SM FEW230 00/M02 A3003 RMK AO2 SLP174 T00011018

KARG 190956Z AUTO 00000KT 10SM CLR 02/01 A2999 RMK AO2 SLP159 T00220011 FZRANO

KJBR 190953Z AUTO 00000KT 8SM CLR 02/01 A3000 RMK AO2 SNB14E36 SLP157 P0000

KALN 191015Z AUTO 13006KT 10SM CLR 00/00 A2997 RMK AO2 T00030000

KALN 190955Z AUTO 12005KT 10SM CLR 00/00 A2997 RMK AO2 T00021001

KALN 191015Z AUTO 13006KT 10SM CLR 00/00 A2997 RMK AO2 T00030000

KALN 190955Z AUTO 12005KT 10SM CLR 00/00 A2997 RMK AO2 T00021001

KCOU 190954Z AUTO 17008KT 10SM CLR 04/01 A2990 RMK AO2 SLP127 T00390006

KAJG 190955Z AUTO 00000KT 10SM CLR 01/00 A3002 RMK AO2 T00081005

KM30 191015Z AUTO 00000KT 10SM CLR 00/M01 A3001 RMK AO2 T10021011

KM30 190955Z AUTO 00000KT 10SM CLR 00/M01 A3002 RMK AO2 T10051014

KDEC 190954Z AUTO 18009KT 10SM FEW120 A2997 RMK AO2 SLPNO $

KIJX 190955Z AUTO 18006KT 10SM CLR 04/M01 A2993 RMK AO2 T00351012


TAFS

KEVV 190520Z 1906/2006 VRB03KT P6SM BKN250

        FM191600 18006KT P6SM BKN250

        FM200200 17005KT P6SM BKN110


Winds Aloft



Pilot Reports

No pilot reports found for area.



Area Forecast



Significant Weather

WAUS44 KKCI 190845 DFWT WA 190845 AIRMET TANGO UPDT 1 FOR TURB VALID UNTIL 191500 AIRMET TURB...OK TX AR TN LA MS AL MO IL IN KY AND CSTL WTRS FROM 40WSW ROD TO CVG TO HNN TO HMV TO GQO TO 50SW PZD TO 40W CEW TO 130ESE LEV TO 120SSW LCH TO 80E BRO TO 90W BRO TO 50NW LRD TO 40ESE SJT TO 20SE OSW TO 20ENE AXC TO 40WSW ROD MOD TURB BTN FL200 AND FL380. CONDS CONTG BYD 15Z THRU 21Z. OTLK VALID 1500-2100Z AREA 1...TURB OK TX AR TN LA MS AL KS MO IL IN KY AND CSTL WTRS BOUNDED BY 50SW DXO-FWA-CVG-HNN-HMV-GQO-50SW PZD-40W CEW-130ESE LEV-120SSW LCH-80E BRO-90W BRO-30NNE ADM-20NW BUM-30SW GIJ-50SW DXO MOD TURB BTN FL200 AND FL380. CONDS CONTG THRU 21Z. AREA 2...TURB OK TX ND SD NE KS MN IA BOUNDED BY 70SW YWG-40SSE FAR-40NNE OVR-30W OKC-INK-30ESE TBE- 50W LBL-GLD-BFF-70SW RAP-50NNW ISN-70SW YWG MOD TURB BLW 160. CONDS CONTG THRU 21Z. AREA 3...TURB TX BOUNDED BY INK-20E JCT-20WNW LRD-DLF-90S MRF-ELP-INK MOD TURB BLW FL180. CONDS DVLPG 15-18Z. CONDS CONTG THRU 21Z.
WAUS43 KKCI 190845 CHIT WA 190845 AIRMET TANGO UPDT 1 FOR TURB STG WNDS AND LLWS VALID UNTIL 191500 AIRMET TURB...MO IL IN KY OK TX AR TN LA MS AL AND CSTL WTRS FROM 40WSW ROD TO CVG TO HNN TO HMV TO GQO TO 50SW PZD TO 40W CEW TO 130ESE LEV TO 120SSW LCH TO 80E BRO TO 90W BRO TO 50NW LRD TO 40ESE SJT TO 20SE OSW TO 20ENE AXC TO 40WSW ROD MOD TURB BTN FL200 AND FL380. CONDS CONTG BYD 15Z THRU 21Z. OTLK VALID 1500-2100Z AREA 1...TURB KS MO IL IN KY OK TX AR TN LA MS AL AND CSTL WTRS BOUNDED BY 50SW DXO-FWA-CVG-HNN-HMV-GQO-50SW PZD-40W CEW-130ESE LEV-120SSW LCH-80E BRO-90W BRO-30NNE ADM-20NW BUM-30SW GIJ-50SW DXO MOD TURB BTN FL200 AND FL380. CONDS CONTG THRU 21Z. AREA 2...TURB ND SD NE KS MN IA OK TX BOUNDED BY 70SW YWG-40SSE FAR-40NNE OVR-30W OKC-INK-30ESE TBE- 50W LBL-GLD-BFF-70SW RAP-50NNW ISN-70SW YWG MOD TURB BLW 160. CONDS CONTG THRU 21Z. AREA 3...STG SFC WNDS SD BOUNDED BY 80W DPR-30NE RAP-30SSW RAP-80W DPR SUSTAINED SURFACE WINDS GTR THAN 30KT EXP. CONDS DVLPG AFT 21Z. CONDS ENDG BY 21Z.